sensor_id;sensor_type;location;lat;lon;timestamp;pressure;altitude;pressure_sealevel;temperature;humidity
40920;BME280;26652;50.280;19.026;2023-04-21T00:02:31;98475.50;;;9.63;88.53
40920;BME280;26652;50.280;19.026;2023-04-21T00:04:45;98477.59;;;9.59;88.07
40920;BME280;26652;50.280;19.026;2023-04-21T00:06:57;98476.91;;;9.65;88.02
40920;BME280;26652;50.280;19.026;2023-04-21T00:09:17;98475.03;;;9.59;88.26
40920;BME280;26652;50.280;19.026;2023-04-21T00:11:22;98463.03;;;9.53;87.98
40920;BME280;26652;50.280;19.026;2023-04-21T00:13:35;98467.75;;;9.56;87.56
40920;BME280;26652;50.280;19.026;2023-04-21T00:15:44;98472.09;;;9.47;88.02
40920;BME280;26652;50.280;19.026;2023-04-21T00:18:14;98474.16;;;9.52;88.04
40920;BME280;26652;50.280;19.026;2023-04-21T00:20:22;98471.59;;;9.52;87.74
40920;BME280;26652;50.280;19.026;2023-04-21T00:22:34;98465.38;;;9.55;87.28
40920;BME280;26652;50.280;19.026;2023-04-21T00:24:45;98464.81;;;9.44;87.28
40920;BME280;26652;50.280;19.026;2023-04-21T00:27:14;98463.50;;;9.34;87.45
40920;BME280;26652;50.280;19.026;2023-04-21T00:29:27;98465.41;;;9.32;88.11
40920;BME280;26652;50.280;19.026;2023-04-21T00:31:39;98455.41;;;9.30;88.35
40920;BME280;26652;50.280;19.026;2023-04-21T00:33:48;98463.41;;;9.19;88.27
40920;BME280;26652;50.280;19.026;2023-04-21T00:35:59;98464.50;;;9.25;88.44
40920;BME280;26652;50.280;19.026;2023-04-21T00:38:13;98463.41;;;9.19;88.80
40920;BME280;26652;50.280;19.026;2023-04-21T00:40:32;98470.75;;;9.14;88.67
40920;BME280;26652;50.280;19.026;2023-04-21T00:42:40;98468.00;;;8.93;89.73
40920;BME280;26652;50.280;19.026;2023-04-21T00:44:51;98472.41;;;8.99;89.81
40920;BME280;26652;50.280;19.026;2023-04-21T00:47:00;98473.38;;;8.98;90.15
40920;BME280;26652;50.280;19.026;2023-04-21T00:49:15;98461.53;;;8.82;90.99
40920;BME280;26652;50.280;19.026;2023-04-21T00:51:23;98474.56;;;8.79;91.06
40920;BME280;26652;50.280;19.026;2023-04-21T00:53:37;98465.69;;;8.75;91.23
40920;BME280;26652;50.280;19.026;2023-04-21T00:56:02;98463.81;;;8.69;90.71
40920;BME280;26652;50.280;19.026;2023-04-21T00:58:17;98471.41;;;8.69;90.65
40920;BME280;26652;50.280;19.026;2023-04-21T01:00:27;98466.81;;;8.72;90.46
40920;BME280;26652;50.280;19.026;2023-04-21T01:02:41;98449.59;;;8.51;91.16
40920;BME280;26652;50.280;19.026;2023-04-21T01:04:53;98463.59;;;8.39;92.26
40920;BME280;26652;50.280;19.026;2023-04-21T01:07:07;98463.78;;;8.13;93.39
40920;BME280;26652;50.280;19.026;2023-04-21T01:09:25;98462.00;;;8.30;93.56
40920;BME280;26652;50.280;19.026;2023-04-21T01:11:36;98464.97;;;8.50;92.13
40920;BME280;26652;50.280;19.026;2023-04-21T01:13:45;98465.12;;;8.57;91.42
40920;BME280;26652;50.280;19.026;2023-04-21T01:16:01;98447.09;;;8.43;91.64
40920;BME280;26652;50.280;19.026;2023-04-21T01:18:10;98454.84;;;8.42;92.48
40920;BME280;26652;50.280;19.026;2023-04-21T01:20:30;98455.94;;;8.56;92.12
40920;BME280;26652;50.280;19.026;2023-04-21T01:22:40;98459.22;;;8.64;91.08
40920;BME280;26652;50.280;19.026;2023-04-21T01:24:53;98464.13;;;8.66;90.72
40920;BME280;26652;50.280;19.026;2023-04-21T01:27:25;98458.19;;;8.42;91.75
40920;BME280;26652;50.280;19.026;2023-04-21T01:29:41;98462.78;;;8.39;92.86
40920;BME280;26652;50.280;19.026;2023-04-21T01:31:46;98466.12;;;8.39;92.35
40920;BME280;26652;50.280;19.026;2023-04-21T01:34:03;98464.56;;;8.30;92.23
40920;BME280;26652;50.280;19.026;2023-04-21T01:36:10;98468.53;;;8.25;93.03
40920;BME280;26652;50.280;19.026;2023-04-21T01:38:22;98464.09;;;8.27;93.06
40920;BME280;26652;50.280;19.026;2023-04-21T01:40:31;98477.06;;;8.32;93.09
40920;BME280;26652;50.280;19.026;2023-04-21T01:42:45;98471.97;;;8.48;92.37
40920;BME280;26652;50.280;19.026;2023-04-21T01:44:55;98465.94;;;8.49;91.62
40920;BME280;26652;50.280;19.026;2023-04-21T01:47:10;98470.22;;;8.40;92.03
40920;BME280;26652;50.280;19.026;2023-04-21T01:49:25;98465.16;;;8.48;91.73
40920;BME280;26652;50.280;19.026;2023-04-21T01:51:42;98467.03;;;8.55;91.19
40920;BME280;26652;50.280;19.026;2023-04-21T01:53:57;98465.12;;;8.57;90.60
40920;BME280;26652;50.280;19.026;2023-04-21T01:56:13;98461.50;;;8.51;89.85
40920;BME280;26652;50.280;19.026;2023-04-21T01:58:20;98463.72;;;8.46;91.00
40920;BME280;26652;50.280;19.026;2023-04-21T02:00:31;98465.41;;;8.62;90.31
40920;BME280;26652;50.280;19.026;2023-04-21T02:02:43;98463.81;;;8.69;89.93
40920;BME280;26652;50.280;19.026;2023-04-21T02:04:56;98461.44;;;8.67;89.52
40920;BME280;26652;50.280;19.026;2023-04-21T02:07:05;98470.53;;;8.53;89.53
40920;BME280;26652;50.280;19.026;2023-04-21T02:09:30;98461.97;;;8.55;89.69
40920;BME280;26652;50.280;19.026;2023-04-21T02:11:36;98464.31;;;8.56;89.89
40920;BME280;26652;50.280;19.026;2023-04-21T02:13:56;98465.41;;;8.62;88.96
40920;BME280;26652;50.280;19.026;2023-04-21T02:16:03;98462.69;;;8.71;88.39
40920;BME280;26652;50.280;19.026;2023-04-21T02:18:17;98459.69;;;8.68;88.05
40920;BME280;26652;50.280;19.026;2023-04-21T02:20:25;98459.84;;;8.66;87.81
40920;BME280;26652;50.280;19.026;2023-04-21T02:22:47;98461.09;;;8.70;87.02
40920;BME280;26652;50.280;19.026;2023-04-21T02:24:55;98445.72;;;8.72;86.34
40920;BME280;26652;50.280;19.026;2023-04-21T02:27:17;98459.66;;;8.76;85.39
40920;BME280;26652;50.280;19.026;2023-04-21T02:29:29;98463.28;;;8.81;85.69
40920;BME280;26652;50.280;19.026;2023-04-21T02:31:48;98459.50;;;8.77;86.85
40920;BME280;26652;50.280;19.026;2023-04-21T02:34:13;98454.84;;;8.89;86.78
40920;BME280;26652;50.280;19.026;2023-04-21T02:36:28;98461.84;;;8.87;86.84
40920;BME280;26652;50.280;19.026;2023-04-21T02:38:43;98453.19;;;8.65;87.03
40920;BME280;26652;50.280;19.026;2023-04-21T02:40:57;98454.22;;;8.48;88.19
40920;BME280;26652;50.280;19.026;2023-04-21T02:43:05;98464.00;;;8.59;87.62
40920;BME280;26652;50.280;19.026;2023-04-21T02:45:24;98456.06;;;8.62;87.35
40920;BME280;26652;50.280;19.026;2023-04-21T02:47:44;98459.06;;;8.66;87.45
40920;BME280;26652;50.280;19.026;2023-04-21T02:49:58;98463.03;;;8.60;87.28
40920;BME280;26652;50.280;19.026;2023-04-21T02:52:10;98463.88;;;8.52;87.62
40920;BME280;26652;50.280;19.026;2023-04-21T02:54:24;98456.13;;;8.46;87.94
40920;BME280;26652;50.280;19.026;2023-04-21T02:56:32;98460.72;;;8.42;87.49
40920;BME280;26652;50.280;19.026;2023-04-21T02:58:57;98463.41;;;8.41;87.41
40920;BME280;26652;50.280;19.026;2023-04-21T03:01:05;98456.16;;;8.30;87.79
40920;BME280;26652;50.280;19.026;2023-04-21T03:03:23;98458.03;;;8.36;88.32
40920;BME280;26652;50.280;19.026;2023-04-21T03:05:37;98462.47;;;8.42;87.90
40920;BME280;26652;50.280;19.026;2023-04-21T03:07:54;98458.81;;;8.44;87.68
40920;BME280;26652;50.280;19.026;2023-04-21T03:10:09;98451.09;;;8.30;87.36
40920;BME280;26652;50.280;19.026;2023-04-21T03:12:39;98458.06;;;8.28;87.45
40920;BME280;26652;50.280;19.026;2023-04-21T03:14:53;98457.53;;;8.32;87.48
40920;BME280;26652;50.280;19.026;2023-04-21T03:17:12;98452.81;;;8.29;87.48
40920;BME280;26652;50.280;19.026;2023-04-21T03:19:21;98459.16;;;8.25;87.48
40920;BME280;26652;50.280;19.026;2023-04-21T03:21:36;98455.69;;;8.26;87.39
40920;BME280;26652;50.280;19.026;2023-04-21T03:23:45;98454.09;;;8.25;87.39
40920;BME280;26652;50.280;19.026;2023-04-21T03:25:58;98448.41;;;8.23;87.30
40920;BME280;26652;50.280;19.026;2023-04-21T03:28:16;98447.63;;;8.14;87.76
40920;BME280;26652;50.280;19.026;2023-04-21T03:30:39;98452.41;;;7.77;89.63
40920;BME280;26652;50.280;19.026;2023-04-21T03:32:57;98450.19;;;7.82;89.85
40920;BME280;26652;50.280;19.026;2023-04-21T03:35:10;98451.94;;;7.73;89.99
40920;BME280;26652;50.280;19.026;2023-04-21T03:37:19;98458.25;;;7.94;89.55
40920;BME280;26652;50.280;19.026;2023-04-21T03:39:43;98451.63;;;7.93;88.20
40920;BME280;26652;50.280;19.026;2023-04-21T03:41:51;98463.34;;;7.85;88.82
40920;BME280;26652;50.280;19.026;2023-04-21T03:44:07;98448.59;;;7.81;89.06
40920;BME280;26652;50.280;19.026;2023-04-21T03:46:21;98454.16;;;7.76;89.50
40920;BME280;26652;50.280;19.026;2023-04-21T03:48:45;98459.84;;;7.78;89.71
40920;BME280;26652;50.280;19.026;2023-04-21T03:50:51;98463.81;;;7.89;88.83
40920;BME280;26652;50.280;19.026;2023-04-21T03:53:02;98464.13;;;7.86;88.42
40920;BME280;26652;50.280;19.026;2023-04-21T03:55:20;98468.56;;;7.92;88.03
40920;BME280;26652;50.280;19.026;2023-04-21T03:57:32;98470.78;;;7.87;88.03
40920;BME280;26652;50.280;19.026;2023-04-21T03:59:41;98472.84;;;7.83;88.61
40920;BME280;26652;50.280;19.026;2023-04-21T04:02:04;98473.16;;;7.80;88.79
40920;BME280;26652;50.280;19.026;2023-04-21T04:04:14;98475.22;;;7.85;88.70
40920;BME280;26652;50.280;19.026;2023-04-21T04:06:32;98479.66;;;7.91;88.16
40920;BME280;26652;50.280;19.026;2023-04-21T04:08:40;98474.09;;;7.96;87.90
40920;BME280;26652;50.280;19.026;2023-04-21T04:11:08;98473.16;;;7.97;88.40
40920;BME280;26652;50.280;19.026;2023-04-21T04:13:16;98480.75;;;7.97;88.00
40920;BME280;26652;50.280;19.026;2023-04-21T04:15:34;98483.44;;;7.95;87.85
40920;BME280;26652;50.280;19.026;2023-04-21T04:17:43;98476.00;;;8.02;87.10
40920;BME280;26652;50.280;19.026;2023-04-21T04:20:05;98492.47;;;8.14;86.36
40920;BME280;26652;50.280;19.026;2023-04-21T04:22:11;98497.53;;;8.22;85.41
40920;BME280;26652;50.280;19.026;2023-04-21T04:24:33;98501.47;;;8.33;85.42
40920;BME280;26652;50.280;19.026;2023-04-21T04:26:41;98489.75;;;8.32;85.11
40920;BME280;26652;50.280;19.026;2023-04-21T04:28:59;98494.34;;;8.28;85.40
40920;BME280;26652;50.280;19.026;2023-04-21T04:31:18;98495.16;;;8.04;87.24
40920;BME280;26652;50.280;19.026;2023-04-21T04:33:34;98493.88;;;8.16;87.16
40920;BME280;26652;50.280;19.026;2023-04-21T04:35:53;98491.97;;;8.35;86.16
40920;BME280;26652;50.280;19.026;2023-04-21T04:38:13;98500.31;;;8.51;85.20
40920;BME280;26652;50.280;19.026;2023-04-21T04:40:25;98496.84;;;8.44;86.42
40920;BME280;26652;50.280;19.026;2023-04-21T04:42:43;98499.34;;;8.61;84.61
40920;BME280;26652;50.280;19.026;2023-04-21T04:44:53;98504.53;;;8.75;82.81
40920;BME280;26652;50.280;19.026;2023-04-21T04:47:14;98503.41;;;8.86;81.46
40920;BME280;26652;50.280;19.026;2023-04-21T04:49:23;98501.91;;;9.00;80.07
40920;BME280;26652;50.280;19.026;2023-04-21T04:51:40;98496.47;;;9.11;78.21
40920;BME280;26652;50.280;19.026;2023-04-21T04:53:55;98503.22;;;9.27;79.06
40920;BME280;26652;50.280;19.026;2023-04-21T04:56:16;98505.34;;;9.38;78.19
40920;BME280;26652;50.280;19.026;2023-04-21T04:58:26;98512.75;;;9.47;78.12
40920;BME280;26652;50.280;19.026;2023-04-21T05:00:40;98505.75;;;9.49;77.34
40920;BME280;26652;50.280;19.026;2023-04-21T05:02:56;98510.97;;;9.56;76.14
40920;BME280;26652;50.280;19.026;2023-04-21T05:05:13;98516.78;;;9.65;75.84
40920;BME280;26652;50.280;19.026;2023-04-21T05:07:22;98511.03;;;9.71;76.91
40920;BME280;26652;50.280;19.026;2023-04-21T05:09:41;98507.50;;;9.72;75.87
40920;BME280;26652;50.280;19.026;2023-04-21T05:11:50;98507.91;;;9.83;75.01
40920;BME280;26652;50.280;19.026;2023-04-21T05:14:04;98517.06;;;9.93;73.84
40920;BME280;26652;50.280;19.026;2023-04-21T05:16:13;98509.63;;;10.06;73.45
40920;BME280;26652;50.280;19.026;2023-04-21T05:18:22;98511.78;;;10.17;72.61
40920;BME280;26652;50.280;19.026;2023-04-21T05:20:31;98519.34;;;10.25;71.98
40920;BME280;26652;50.280;19.026;2023-04-21T05:22:47;98517.72;;;10.32;71.92
40920;BME280;26652;50.280;19.026;2023-04-21T05:24:55;98519.12;;;10.35;71.74
40920;BME280;26652;50.280;19.026;2023-04-21T05:27:06;98505.31;;;10.44;71.64
40920;BME280;26652;50.280;19.026;2023-04-21T05:29:14;98512.97;;;10.59;71.90
40920;BME280;26652;50.280;19.026;2023-04-21T05:31:39;98518.84;;;10.74;71.45
40920;BME280;26652;50.280;19.026;2023-04-21T05:33:54;98514.63;;;10.81;71.63
40920;BME280;26652;50.280;19.026;2023-04-21T05:36:15;98518.12;;;10.95;70.63
40920;BME280;26652;50.280;19.026;2023-04-21T05:38:30;98515.94;;;11.06;71.25
40920;BME280;26652;50.280;19.026;2023-04-21T05:40:51;98521.72;;;11.15;70.34
40920;BME280;26652;50.280;19.026;2023-04-21T05:42:56;98520.38;;;11.19;70.43
40920;BME280;26652;50.280;19.026;2023-04-21T05:45:07;98522.03;;;11.27;69.49
40920;BME280;26652;50.280;19.026;2023-04-21T05:47:24;98520.34;;;11.34;69.85
40920;BME280;26652;50.280;19.026;2023-04-21T05:49:42;98519.84;;;11.45;69.14
40920;BME280;26652;50.280;19.026;2023-04-21T05:51:54;98518.59;;;11.56;68.37
40920;BME280;26652;50.280;19.026;2023-04-21T05:54:11;98525.50;;;11.62;67.78
40920;BME280;26652;50.280;19.026;2023-04-21T05:56:23;98524.44;;;11.71;67.95
40920;BME280;26652;50.280;19.026;2023-04-21T05:58:36;98518.88;;;11.82;67.34
40920;BME280;26652;50.280;19.026;2023-04-21T06:00:52;98517.22;;;11.96;66.62
40920;BME280;26652;50.280;19.026;2023-04-21T06:03:04;98517.47;;;12.01;65.83
40920;BME280;26652;50.280;19.026;2023-04-21T06:05:19;98514.59;;;12.10;65.71
40920;BME280;26652;50.280;19.026;2023-04-21T06:07:32;98521.97;;;12.27;65.60
40920;BME280;26652;50.280;19.026;2023-04-21T06:09:40;98515.53;;;12.31;64.64
40920;BME280;26652;50.280;19.026;2023-04-21T06:12:01;98509.50;;;12.38;64.94
40920;BME280;26652;50.280;19.026;2023-04-21T06:14:06;98511.34;;;12.58;66.13
40920;BME280;26652;50.280;19.026;2023-04-21T06:16:18;98513.38;;;12.69;63.17
40920;BME280;26652;50.280;19.026;2023-04-21T06:18:29;98523.84;;;12.81;63.37
40920;BME280;26652;50.280;19.026;2023-04-21T06:20:53;98515.06;;;12.90;65.62
40920;BME280;26652;50.280;19.026;2023-04-21T06:23:03;98521.59;;;13.05;64.39
40920;BME280;26652;50.280;19.026;2023-04-21T06:25:15;98522.03;;;13.16;63.09
40920;BME280;26652;50.280;19.026;2023-04-21T06:27:23;98518.56;;;13.23;62.14
40920;BME280;26652;50.280;19.026;2023-04-21T06:29:42;98521.72;;;13.32;61.94
40920;BME280;26652;50.280;19.026;2023-04-21T06:31:52;98524.53;;;13.50;60.58
40920;BME280;26652;50.280;19.026;2023-04-21T06:34:15;98532.97;;;13.57;60.01
40920;BME280;26652;50.280;19.026;2023-04-21T06:36:41;98518.44;;;13.71;62.85
40920;BME280;26652;50.280;19.026;2023-04-21T06:38:57;98519.44;;;13.90;59.83
40920;BME280;26652;50.280;19.026;2023-04-21T06:41:07;98528.50;;;13.99;60.64
40920;BME280;26652;50.280;19.026;2023-04-21T06:43:18;98516.09;;;14.09;60.83
40920;BME280;26652;50.280;19.026;2023-04-21T06:45:30;98518.25;;;14.32;60.27
40920;BME280;26652;50.280;19.026;2023-04-21T06:47:42;98517.25;;;14.53;58.25
40920;BME280;26652;50.280;19.026;2023-04-21T06:49:50;98525.38;;;15.01;56.75
40920;BME280;26652;50.280;19.026;2023-04-21T06:52:06;98531.88;;;16.05;56.27
40920;BME280;26652;50.280;19.026;2023-04-21T06:54:21;98529.25;;;17.69;53.27
40920;BME280;26652;50.280;19.026;2023-04-21T06:56:44;98531.31;;;19.12;47.27
40920;BME280;26652;50.280;19.026;2023-04-21T06:58:54;98537.91;;;20.66;44.17
40920;BME280;26652;50.280;19.026;2023-04-21T07:01:02;98541.19;;;21.27;42.71
40920;BME280;26652;50.280;19.026;2023-04-21T07:03:11;98545.66;;;22.32;41.00
40920;BME280;26652;50.280;19.026;2023-04-21T07:05:28;98548.41;;;22.58;40.86
40920;BME280;26652;50.280;19.026;2023-04-21T07:07:47;98551.28;;;23.44;40.82
40920;BME280;26652;50.280;19.026;2023-04-21T07:10:01;98557.34;;;23.80;38.61
40920;BME280;26652;50.280;19.026;2023-04-21T07:12:25;98551.00;;;24.57;35.79
40920;BME280;26652;50.280;19.026;2023-04-21T07:14:39;98554.44;;;24.17;36.79
40920;BME280;26652;50.280;19.026;2023-04-21T07:16:53;98547.94;;;24.30;38.80
40920;BME280;26652;50.280;19.026;2023-04-21T07:19:11;98545.34;;;25.04;35.62
40920;BME280;26652;50.280;19.026;2023-04-21T07:21:19;98535.41;;;25.12;34.95
40920;BME280;26652;50.280;19.026;2023-04-21T07:23:35;98539.56;;;25.52;34.15
40920;BME280;26652;50.280;19.026;2023-04-21T07:25:49;98545.63;;;25.81;32.82
40920;BME280;26652;50.280;19.026;2023-04-21T07:28:03;98548.00;;;25.78;32.50
40920;BME280;26652;50.280;19.026;2023-04-21T07:30:12;98544.53;;;25.09;32.85
40920;BME280;26652;50.280;19.026;2023-04-21T07:32:33;98541.09;;;25.19;32.50
40920;BME280;26652;50.280;19.026;2023-04-21T07:34:46;98540.09;;;25.09;32.73
40920;BME280;26652;50.280;19.026;2023-04-21T07:36:59;98544.09;;;25.36;32.42
40920;BME280;26652;50.280;19.026;2023-04-21T07:39:17;98547.09;;;25.14;32.52
40920;BME280;26652;50.280;19.026;2023-04-21T07:41:31;98543.63;;;24.80;35.32
40920;BME280;26652;50.280;19.026;2023-04-21T07:43:39;98544.81;;;24.12;34.75
40920;BME280;26652;50.280;19.026;2023-04-21T07:45:50;98536.47;;;24.31;33.38
40920;BME280;26652;50.280;19.026;2023-04-21T07:47:56;98538.28;;;24.25;31.50
40920;BME280;26652;50.280;19.026;2023-04-21T07:50:20;98530.47;;;24.40;32.10
40920;BME280;26652;50.280;19.026;2023-04-21T07:52:35;98535.47;;;23.96;31.37
40920;BME280;26652;50.280;19.026;2023-04-21T07:54:59;98538.06;;;24.11;32.43
40920;BME280;26652;50.280;19.026;2023-04-21T07:57:13;98519.34;;;23.94;32.19
40920;BME280;26652;50.280;19.026;2023-04-21T07:59:22;98515.91;;;24.24;34.25
40920;BME280;26652;50.280;19.026;2023-04-21T08:01:30;98525.47;;;24.59;32.12
40920;BME280;26652;50.280;19.026;2023-04-21T08:03:42;98526.84;;;24.41;34.23
40920;BME280;26652;50.280;19.026;2023-04-21T08:05:54;98528.84;;;24.65;33.35
40920;BME280;26652;50.280;19.026;2023-04-21T08:08:07;98527.06;;;24.50;32.54
40920;BME280;26652;50.280;19.026;2023-04-21T08:10:16;98531.03;;;24.27;32.60
40920;BME280;26652;50.280;19.026;2023-04-21T08:12:29;98527.88;;;24.35;31.91
40920;BME280;26652;50.280;19.026;2023-04-21T08:14:43;98521.66;;;24.06;33.07
40920;BME280;26652;50.280;19.026;2023-04-21T08:17:00;98522.97;;;23.53;30.95
40920;BME280;26652;50.280;19.026;2023-04-21T08:19:14;98515.44;;;23.41;32.69
40920;BME280;26652;50.280;19.026;2023-04-21T08:21:26;98517.66;;;22.81;33.19
40920;BME280;26652;50.280;19.026;2023-04-21T08:23:36;98518.56;;;22.55;35.12
40920;BME280;26652;50.280;19.026;2023-04-21T08:25:54;98514.91;;;22.51;34.53
40920;BME280;26652;50.280;19.026;2023-04-21T08:28:08;98512.66;;;22.70;34.55
40920;BME280;26652;50.280;19.026;2023-04-21T08:30:27;98512.72;;;22.80;33.97
40920;BME280;26652;50.280;19.026;2023-04-21T08:32:41;98516.47;;;22.52;32.96
40920;BME280;26652;50.280;19.026;2023-04-21T08:34:58;98511.44;;;22.35;33.92
40920;BME280;26652;50.280;19.026;2023-04-21T08:37:18;98504.56;;;22.09;34.02
40920;BME280;26652;50.280;19.026;2023-04-21T08:39:29;98511.03;;;22.06;32.76
40920;BME280;26652;50.280;19.026;2023-04-21T08:41:38;98502.03;;;22.19;32.98
40920;BME280;26652;50.280;19.026;2023-04-21T08:43:48;98504.94;;;22.28;33.94
40920;BME280;26652;50.280;19.026;2023-04-21T08:45:57;98515.44;;;21.74;33.79
40920;BME280;26652;50.280;19.026;2023-04-21T08:48:13;98500.59;;;21.10;34.32
40920;BME280;26652;50.280;19.026;2023-04-21T08:50:21;98502.22;;;20.68;35.01
40920;BME280;26652;50.280;19.026;2023-04-21T08:52:33;98502.81;;;20.53;34.11
40920;BME280;26652;50.280;19.026;2023-04-21T08:54:49;98503.34;;;20.00;35.23
40920;BME280;26652;50.280;19.026;2023-04-21T08:57:02;98494.59;;;19.84;35.47
40920;BME280;26652;50.280;19.026;2023-04-21T08:59:08;98493.91;;;19.72;35.30
40920;BME280;26652;50.280;19.026;2023-04-21T09:02:06;98488.66;;;19.67;35.62
40920;BME280;26652;50.280;19.026;2023-04-21T09:04:16;98495.62;;;19.66;36.77
40920;BME280;26652;50.280;19.026;2023-04-21T09:06:40;98496.72;;;19.25;34.07
40920;BME280;26652;50.280;19.026;2023-04-21T09:08:55;98491.81;;;19.12;34.39
40920;BME280;26652;50.280;19.026;2023-04-21T09:11:05;98490.50;;;19.09;35.50
40920;BME280;26652;50.280;19.026;2023-04-21T09:13:14;98496.66;;;19.08;35.94
40920;BME280;26652;50.280;19.026;2023-04-21T09:15:23;98488.19;;;18.96;34.79
40920;BME280;26652;50.280;19.026;2023-04-21T09:17:43;98487.25;;;19.31;35.97
40920;BME280;26652;50.280;19.026;2023-04-21T09:19:54;98485.69;;;19.58;33.26
40920;BME280;26652;50.280;19.026;2023-04-21T09:22:02;98490.31;;;19.73;32.92
40920;BME280;26652;50.280;19.026;2023-04-21T09:24:14;98485.34;;;19.88;32.53
40920;BME280;26652;50.280;19.026;2023-04-21T09:26:26;98480.31;;;19.98;32.85
40920;BME280;26652;50.280;19.026;2023-04-21T09:28:44;98478.13;;;19.90;33.76
40920;BME280;26652;50.280;19.026;2023-04-21T09:30:55;98480.41;;;19.86;34.09
40920;BME280;26652;50.280;19.026;2023-04-21T09:33:07;98473.12;;;19.83;33.12
40920;BME280;26652;50.280;19.026;2023-04-21T09:35:21;98478.31;;;19.83;33.51
40920;BME280;26652;50.280;19.026;2023-04-21T09:37:37;98475.78;;;20.05;34.68
40920;BME280;26652;50.280;19.026;2023-04-21T09:39:47;98481.88;;;19.99;33.15
40920;BME280;26652;50.280;19.026;2023-04-21T09:42:10;98471.88;;;20.03;33.40
40920;BME280;26652;50.280;19.026;2023-04-21T09:44:15;98468.06;;;20.27;33.22
40920;BME280;26652;50.280;19.026;2023-04-21T09:46:36;98468.66;;;20.34;32.69
40920;BME280;26652;50.280;19.026;2023-04-21T09:48:44;98467.22;;;20.60;32.49
40920;BME280;26652;50.280;19.026;2023-04-21T09:50:53;98462.63;;;20.67;32.28
40920;BME280;26652;50.280;19.026;2023-04-21T09:53:00;98475.38;;;20.74;32.05
40920;BME280;26652;50.280;19.026;2023-04-21T09:55:14;98460.34;;;20.71;32.17
40920;BME280;26652;50.280;19.026;2023-04-21T09:57:25;98467.94;;;21.31;31.91
40920;BME280;26652;50.280;19.026;2023-04-21T09:59:41;98461.81;;;21.74;32.67
40920;BME280;26652;50.280;19.026;2023-04-21T10:01:50;98461.53;;;22.13;31.40
40920;BME280;26652;50.280;19.026;2023-04-21T10:04:01;98465.03;;;21.97;30.55
40920;BME280;26652;50.280;19.026;2023-04-21T10:06:10;98461.00;;;22.11;30.80
40920;BME280;26652;50.280;19.026;2023-04-21T10:08:26;98469.41;;;21.49;31.10
40920;BME280;26652;50.280;19.026;2023-04-21T10:10:35;98464.16;;;20.90;31.23
40920;BME280;26652;50.280;19.026;2023-04-21T10:12:46;98464.50;;;20.50;31.93
40920;BME280;26652;50.280;19.026;2023-04-21T10:14:55;98465.44;;;20.05;32.15
40920;BME280;26652;50.280;19.026;2023-04-21T10:17:09;98462.31;;;19.86;32.38
40920;BME280;26652;50.280;19.026;2023-04-21T10:19:27;98446.09;;;20.08;32.33
40920;BME280;26652;50.280;19.026;2023-04-21T10:21:45;98448.63;;;20.24;32.62
40920;BME280;26652;50.280;19.026;2023-04-21T10:23:53;98454.63;;;20.47;31.98
40920;BME280;26652;50.280;19.026;2023-04-21T10:26:33;98451.84;;;20.75;32.17
40920;BME280;26652;50.280;19.026;2023-04-21T10:31:20;98450.56;;;20.34;31.30
40920;BME280;26652;50.280;19.026;2023-04-21T10:33:27;98459.69;;;19.65;31.52
40920;BME280;26652;50.280;19.026;2023-04-21T10:35:59;98451.19;;;19.36;31.86
40920;BME280;26652;50.280;19.026;2023-04-21T10:38:23;98441.28;;;19.78;32.47
40920;BME280;26652;50.280;19.026;2023-04-21T10:40:38;98445.56;;;19.89;32.23
40920;BME280;26652;50.280;19.026;2023-04-21T10:42:51;98436.84;;;19.56;32.38
40920;BME280;26652;50.280;19.026;2023-04-21T10:45:06;98434.69;;;19.87;33.12
40920;BME280;26652;50.280;19.026;2023-04-21T10:47:31;98436.00;;;20.28;32.40
40920;BME280;26652;50.280;19.026;2023-04-21T10:49:43;98441.00;;;20.13;31.41
40920;BME280;26652;50.280;19.026;2023-04-21T10:52:03;98444.13;;;20.15;31.87
40920;BME280;26652;50.280;19.026;2023-04-21T10:54:14;98441.09;;;20.01;32.45
40920;BME280;26652;50.280;19.026;2023-04-21T10:56:30;98426.75;;;20.10;32.62
40920;BME280;26652;50.280;19.026;2023-04-21T10:58:35;98424.88;;;20.06;34.66
40920;BME280;26652;50.280;19.026;2023-04-21T11:00:47;98421.06;;;20.52;34.96
40920;BME280;26652;50.280;19.026;2023-04-21T11:03:02;98427.19;;;20.68;30.93
40920;BME280;26652;50.280;19.026;2023-04-21T11:05:13;98425.34;;;20.63;31.61
40920;BME280;26652;50.280;19.026;2023-04-21T11:07:20;98427.81;;;20.53;31.32
40920;BME280;26652;50.280;19.026;2023-04-21T11:09:32;98435.94;;;20.23;31.30
40920;BME280;26652;50.280;19.026;2023-04-21T11:11:37;98422.28;;;20.06;31.92
40920;BME280;26652;50.280;19.026;2023-04-21T11:13:49;98413.75;;;20.05;33.43
40920;BME280;26652;50.280;19.026;2023-04-21T11:16:02;98424.81;;;20.22;30.93
40920;BME280;26652;50.280;19.026;2023-04-21T11:18:14;98424.75;;;20.56;31.40
40920;BME280;26652;50.280;19.026;2023-04-21T11:20:33;98419.19;;;20.69;30.57
40920;BME280;26652;50.280;19.026;2023-04-21T11:22:45;98414.75;;;20.92;31.09
40920;BME280;26652;50.280;19.026;2023-04-21T11:24:57;98418.41;;;20.96;31.21
40920;BME280;26652;50.280;19.026;2023-04-21T11:27:16;98416.03;;;21.21;31.91
40920;BME280;26652;50.280;19.026;2023-04-21T11:29:24;98417.28;;;20.86;30.35
40920;BME280;26652;50.280;19.026;2023-04-21T11:31:43;98413.84;;;20.76;30.92
40920;BME280;26652;50.280;19.026;2023-04-21T11:33:51;98408.13;;;20.74;30.24
40920;BME280;26652;50.280;19.026;2023-04-21T11:36:07;98406.88;;;20.81;31.26
40920;BME280;26652;50.280;19.026;2023-04-21T11:38:13;98406.03;;;20.71;30.35
40920;BME280;26652;50.280;19.026;2023-04-21T11:40:46;98401.63;;;20.71;30.12
40920;BME280;26652;50.280;19.026;2023-04-21T11:42:58;98396.78;;;20.80;29.96
40920;BME280;26652;50.280;19.026;2023-04-21T11:45:19;98395.66;;;20.71;30.02
40920;BME280;26652;50.280;19.026;2023-04-21T11:47:30;98396.50;;;20.76;31.66
40920;BME280;26652;50.280;19.026;2023-04-21T11:49:55;98400.09;;;20.48;30.56